sensor_id;sensor_type;location;lat;lon;timestamp;temperature;humidity
7378;DHT22;3730;50.856;12.776;2023-03-04T00:01:49;0.10;99.90
7378;DHT22;3730;50.856;12.776;2023-03-04T00:04:16;0.10;99.90
7378;DHT22;3730;50.856;12.776;2023-03-04T00:06:41;0.70;99.90
7378;DHT22;3730;50.856;12.776;2023-03-04T00:09:07;-0.10;99.90
7378;DHT22;3730;50.856;12.776;2023-03-04T00:11:33;-0.20;99.90
7378;DHT22;3730;50.856;12.776;2023-03-04T00:13:58;-0.20;99.90
7378;DHT22;3730;50.856;12.776;2023-03-04T00:16:24;-0.20;99.90
7378;DHT22;3730;50.856;12.776;2023-03-04T00:18:54;0.70;99.90
7378;DHT22;3730;50.856;12.776;2023-03-04T00:21:20;0.00;99.90
7378;DHT22;3730;50.856;12.776;2023-03-04T00:23:45;-0.20;99.90
7378;DHT22;3730;50.856;12.776;2023-03-04T00:26:11;-0.20;99.90
7378;DHT22;3730;50.856;12.776;2023-03-04T00:28:38;-0.20;99.90
7378;DHT22;3730;50.856;12.776;2023-03-04T00:31:05;-0.20;99.90
7378;DHT22;3730;50.856;12.776;2023-03-04T00:33:31;-0.20;99.90
7378;DHT22;3730;50.856;12.776;2023-03-04T00:35:56;-0.20;99.90
7378;DHT22;3730;50.856;12.776;2023-03-04T00:38:22;-0.20;99.90
7378;DHT22;3730;50.856;12.776;2023-03-04T00:40:48;-0.30;99.90
7378;DHT22;3730;50.856;12.776;2023-03-04T00:43:13;-0.30;99.90
7378;DHT22;3730;50.856;12.776;2023-03-04T00:45:39;-0.30;99.90
7378;DHT22;3730;50.856;12.776;2023-03-04T00:48:05;-0.30;99.90
7378;DHT22;3730;50.856;12.776;2023-03-04T00:50:31;0.30;99.90
7378;DHT22;3730;50.856;12.776;2023-03-04T00:52:56;-0.30;99.90
7378;DHT22;3730;50.856;12.776;2023-03-04T00:55:23;-0.40;99.90
7378;DHT22;3730;50.856;12.776;2023-03-04T00:57:49;0.30;99.90
7378;DHT22;3730;50.856;12.776;2023-03-04T01:00:15;-0.30;99.90
7378;DHT22;3730;50.856;12.776;2023-03-04T01:02:40;-0.20;99.90
7378;DHT22;3730;50.856;12.776;2023-03-04T01:05:06;-0.30;99.90
7378;DHT22;3730;50.856;12.776;2023-03-04T01:07:33;-0.20;99.90
7378;DHT22;3730;50.856;12.776;2023-03-04T01:09:58;-0.30;99.90
7378;DHT22;3730;50.856;12.776;2023-03-04T01:12:24;-0.20;99.90
7378;DHT22;3730;50.856;12.776;2023-03-04T01:14:49;-0.20;99.90
7378;DHT22;3730;50.856;12.776;2023-03-04T01:17:15;0.50;99.90
7378;DHT22;3730;50.856;12.776;2023-03-04T01:19:41;-0.20;99.90
7378;DHT22;3730;50.856;12.776;2023-03-04T01:22:06;-0.20;99.90
7378;DHT22;3730;50.856;12.776;2023-03-04T01:24:32;-0.20;99.90
7378;DHT22;3730;50.856;12.776;2023-03-04T01:26:58;-0.10;99.90
7378;DHT22;3730;50.856;12.776;2023-03-04T01:29:23;-0.20;99.90
7378;DHT22;3730;50.856;12.776;2023-03-04T01:31:49;-0.20;99.90
7378;DHT22;3730;50.856;12.776;2023-03-04T01:34:15;-0.30;99.90
7378;DHT22;3730;50.856;12.776;2023-03-04T01:36:42;-0.30;99.90
7378;DHT22;3730;50.856;12.776;2023-03-04T01:39:07;-0.30;99.90
7378;DHT22;3730;50.856;12.776;2023-03-04T01:41:33;-0.20;99.90
7378;DHT22;3730;50.856;12.776;2023-03-04T01:43:59;0.40;99.90
7378;DHT22;3730;50.856;12.776;2023-03-04T01:46:27;1.10;99.90
7378;DHT22;3730;50.856;12.776;2023-03-04T01:48:53;-0.10;99.90
7378;DHT22;3730;50.856;12.776;2023-03-04T01:51:19;-0.30;99.90
7378;DHT22;3730;50.856;12.776;2023-03-04T01:53:47;-0.30;99.90
7378;DHT22;3730;50.856;12.776;2023-03-04T01:56:18;-0.30;99.90
7378;DHT22;3730;50.856;12.776;2023-03-04T01:58:44;-0.30;99.90
7378;DHT22;3730;50.856;12.776;2023-03-04T02:01:11;-0.20;99.90
7378;DHT22;3730;50.856;12.776;2023-03-04T02:03:37;-0.20;99.90
7378;DHT22;3730;50.856;12.776;2023-03-04T02:06:03;-0.20;99.90
7378;DHT22;3730;50.856;12.776;2023-03-04T02:08:29;-0.20;99.90
7378;DHT22;3730;50.856;12.776;2023-03-04T02:10:55;-0.20;99.90
7378;DHT22;3730;50.856;12.776;2023-03-04T02:13:21;0.70;99.90
7378;DHT22;3730;50.856;12.776;2023-03-04T02:15:47;-0.20;99.90
7378;DHT22;3730;50.856;12.776;2023-03-04T02:18:23;-0.20;99.90
7378;DHT22;3730;50.856;12.776;2023-03-04T02:21:12;0.50;99.90
7378;DHT22;3730;50.856;12.776;2023-03-04T02:26:44;-0.10;99.90
7378;DHT22;3730;50.856;12.776;2023-03-04T02:29:12;-0.20;99.90
7378;DHT22;3730;50.856;12.776;2023-03-04T02:31:43;-0.20;99.90
7378;DHT22;3730;50.856;12.776;2023-03-04T02:34:18;-0.10;99.90
7378;DHT22;3730;50.856;12.776;2023-03-04T02:36:45;-0.20;99.90
7378;DHT22;3730;50.856;12.776;2023-03-04T02:41:47;0.00;99.90
7378;DHT22;3730;50.856;12.776;2023-03-04T02:44:24;-0.10;99.90
7378;DHT22;3730;50.856;12.776;2023-03-04T02:46:51;-0.10;99.90
7378;DHT22;3730;50.856;12.776;2023-03-04T02:49:17;0.40;99.90
7378;DHT22;3730;50.856;12.776;2023-03-04T02:51:43;-0.10;99.90
7378;DHT22;3730;50.856;12.776;2023-03-04T02:54:20;-0.20;99.90
7378;DHT22;3730;50.856;12.776;2023-03-04T02:56:48;0.00;99.90
7378;DHT22;3730;50.856;12.776;2023-03-04T02:59:14;-0.10;99.90
7378;DHT22;3730;50.856;12.776;2023-03-04T03:01:39;-0.10;99.90
7378;DHT22;3730;50.856;12.776;2023-03-04T03:04:05;0.00;99.90
7378;DHT22;3730;50.856;12.776;2023-03-04T03:06:31;0.10;99.90
7378;DHT22;3730;50.856;12.776;2023-03-04T03:08:56;0.00;99.90
7378;DHT22;3730;50.856;12.776;2023-03-04T03:11:22;0.00;99.90
7378;DHT22;3730;50.856;12.776;2023-03-04T03:13:47;0.10;99.90
7378;DHT22;3730;50.856;12.776;2023-03-04T03:16:13;0.10;99.90
7378;DHT22;3730;50.856;12.776;2023-03-04T03:18:39;0.10;99.90
7378;DHT22;3730;50.856;12.776;2023-03-04T03:21:05;1.10;99.90
7378;DHT22;3730;50.856;12.776;2023-03-04T03:23:31;0.10;99.90
7378;DHT22;3730;50.856;12.776;2023-03-04T03:25:57;0.10;99.90
7378;DHT22;3730;50.856;12.776;2023-03-04T03:28:22;0.10;99.90
7378;DHT22;3730;50.856;12.776;2023-03-04T03:30:48;1.10;99.90
7378;DHT22;3730;50.856;12.776;2023-03-04T03:33:14;0.20;99.90
7378;DHT22;3730;50.856;12.776;2023-03-04T03:35:39;0.20;99.90
7378;DHT22;3730;50.856;12.776;2023-03-04T03:38:05;0.10;99.90
7378;DHT22;3730;50.856;12.776;2023-03-04T03:40:31;0.10;99.90
7378;DHT22;3730;50.856;12.776;2023-03-04T03:42:56;0.10;99.90
7378;DHT22;3730;50.856;12.776;2023-03-04T03:45:22;0.10;99.90
7378;DHT22;3730;50.856;12.776;2023-03-04T03:47:48;0.60;99.90
7378;DHT22;3730;50.856;12.776;2023-03-04T03:50:13;0.20;99.90
7378;DHT22;3730;50.856;12.776;2023-03-04T03:52:39;0.30;99.90
7378;DHT22;3730;50.856;12.776;2023-03-04T03:55:05;0.30;99.90
7378;DHT22;3730;50.856;12.776;2023-03-04T03:57:31;0.20;99.90
7378;DHT22;3730;50.856;12.776;2023-03-04T03:59:56;1.20;99.90
7378;DHT22;3730;50.856;12.776;2023-03-04T04:02:22;0.00;99.90
7378;DHT22;3730;50.856;12.776;2023-03-04T04:04:48;0.10;99.90
7378;DHT22;3730;50.856;12.776;2023-03-04T04:07:13;0.10;99.90
7378;DHT22;3730;50.856;12.776;2023-03-04T04:09:39;0.10;99.90
7378;DHT22;3730;50.856;12.776;2023-03-04T04:12:06;0.10;99.90
7378;DHT22;3730;50.856;12.776;2023-03-04T04:14:32;0.20;99.90
7378;DHT22;3730;50.856;12.776;2023-03-04T04:16:58;0.20;99.90
7378;DHT22;3730;50.856;12.776;2023-03-04T04:19:24;0.00;99.90
7378;DHT22;3730;50.856;12.776;2023-03-04T04:21:50;0.30;99.90
7378;DHT22;3730;50.856;12.776;2023-03-04T04:24:16;0.20;99.90
7378;DHT22;3730;50.856;12.776;2023-03-04T04:26:42;0.20;99.90
7378;DHT22;3730;50.856;12.776;2023-03-04T04:29:08;0.20;99.90
7378;DHT22;3730;50.856;12.776;2023-03-04T04:31:33;0.30;99.90
7378;DHT22;3730;50.856;12.776;2023-03-04T04:33:59;0.10;99.90
7378;DHT22;3730;50.856;12.776;2023-03-04T04:36:25;0.30;99.90
7378;DHT22;3730;50.856;12.776;2023-03-04T04:38:51;0.20;99.90
7378;DHT22;3730;50.856;12.776;2023-03-04T04:41:20;1.00;99.90
7378;DHT22;3730;50.856;12.776;2023-03-04T04:43:46;0.40;99.90
7378;DHT22;3730;50.856;12.776;2023-03-04T04:46:13;0.50;99.90
7378;DHT22;3730;50.856;12.776;2023-03-04T04:48:39;0.50;99.90
7378;DHT22;3730;50.856;12.776;2023-03-04T04:51:04;0.50;99.90
7378;DHT22;3730;50.856;12.776;2023-03-04T04:53:30;0.50;99.90
7378;DHT22;3730;50.856;12.776;2023-03-04T04:55:55;0.40;99.90
7378;DHT22;3730;50.856;12.776;2023-03-04T04:58:21;0.50;99.90
7378;DHT22;3730;50.856;12.776;2023-03-04T05:00:47;0.50;99.90
7378;DHT22;3730;50.856;12.776;2023-03-04T05:03:13;0.50;99.90
7378;DHT22;3730;50.856;12.776;2023-03-04T05:05:38;0.50;99.90
7378;DHT22;3730;50.856;12.776;2023-03-04T05:08:04;0.50;99.90
7378;DHT22;3730;50.856;12.776;2023-03-04T05:10:30;0.60;99.90
7378;DHT22;3730;50.856;12.776;2023-03-04T05:12:55;0.60;99.90
7378;DHT22;3730;50.856;12.776;2023-03-04T05:15:21;2.40;99.90
7378;DHT22;3730;50.856;12.776;2023-03-04T05:17:46;0.50;99.90
7378;DHT22;3730;50.856;12.776;2023-03-04T05:20:12;0.50;99.90
7378;DHT22;3730;50.856;12.776;2023-03-04T05:22:38;0.70;99.90
7378;DHT22;3730;50.856;12.776;2023-03-04T05:25:04;0.70;99.90
7378;DHT22;3730;50.856;12.776;2023-03-04T05:27:30;0.70;99.90
7378;DHT22;3730;50.856;12.776;2023-03-04T05:29:55;0.60;99.90
7378;DHT22;3730;50.856;12.776;2023-03-04T05:32:24;0.70;99.90
7378;DHT22;3730;50.856;12.776;2023-03-04T05:34:49;0.70;99.90
7378;DHT22;3730;50.856;12.776;2023-03-04T05:37:15;0.80;99.90
7378;DHT22;3730;50.856;12.776;2023-03-04T05:39:41;0.90;99.90
7378;DHT22;3730;50.856;12.776;2023-03-04T05:42:06;0.80;99.90
7378;DHT22;3730;50.856;12.776;2023-03-04T05:44:32;0.70;99.90
7378;DHT22;3730;50.856;12.776;2023-03-04T05:46:58;0.70;99.90
7378;DHT22;3730;50.856;12.776;2023-03-04T05:49:23;0.80;99.90
7378;DHT22;3730;50.856;12.776;2023-03-04T05:51:49;0.80;99.90
7378;DHT22;3730;50.856;12.776;2023-03-04T05:54:14;0.80;99.90
7378;DHT22;3730;50.856;12.776;2023-03-04T05:56:40;0.80;99.90
7378;DHT22;3730;50.856;12.776;2023-03-04T05:59:06;0.90;99.90
7378;DHT22;3730;50.856;12.776;2023-03-04T06:01:31;0.80;99.90
7378;DHT22;3730;50.856;12.776;2023-03-04T06:03:57;0.70;99.90
7378;DHT22;3730;50.856;12.776;2023-03-04T06:06:23;0.70;99.90
7378;DHT22;3730;50.856;12.776;2023-03-04T06:08:48;0.80;99.90
7378;DHT22;3730;50.856;12.776;2023-03-04T06:11:14;0.80;99.90
7378;DHT22;3730;50.856;12.776;2023-03-04T06:13:39;0.80;99.90
7378;DHT22;3730;50.856;12.776;2023-03-04T06:16:05;0.80;99.90
7378;DHT22;3730;50.856;12.776;2023-03-04T06:18:31;0.70;99.90
7378;DHT22;3730;50.856;12.776;2023-03-04T06:20:58;0.70;99.90
7378;DHT22;3730;50.856;12.776;2023-03-04T06:23:25;0.70;99.90
7378;DHT22;3730;50.856;12.776;2023-03-04T06:25:55;0.90;99.90
7378;DHT22;3730;50.856;12.776;2023-03-04T06:28:22;0.80;99.90
7378;DHT22;3730;50.856;12.776;2023-03-04T06:30:50;0.70;99.90
7378;DHT22;3730;50.856;12.776;2023-03-04T06:33:16;0.90;99.90
7378;DHT22;3730;50.856;12.776;2023-03-04T06:35:42;0.70;99.90
7378;DHT22;3730;50.856;12.776;2023-03-04T06:38:07;0.70;99.90
7378;DHT22;3730;50.856;12.776;2023-03-04T06:40:33;0.90;99.90
7378;DHT22;3730;50.856;12.776;2023-03-04T06:42:59;1.30;99.90
7378;DHT22;3730;50.856;12.776;2023-03-04T06:45:24;1.80;99.90
7378;DHT22;3730;50.856;12.776;2023-03-04T06:47:50;2.00;99.90
7378;DHT22;3730;50.856;12.776;2023-03-04T06:50:16;0.90;99.90
7378;DHT22;3730;50.856;12.776;2023-03-04T06:52:41;1.00;99.90
7378;DHT22;3730;50.856;12.776;2023-03-04T06:55:07;0.90;99.90
7378;DHT22;3730;50.856;12.776;2023-03-04T06:57:33;0.90;99.90
7378;DHT22;3730;50.856;12.776;2023-03-04T06:59:59;1.00;99.90
7378;DHT22;3730;50.856;12.776;2023-03-04T07:02:25;0.90;99.90
7378;DHT22;3730;50.856;12.776;2023-03-04T07:04:50;1.00;99.90
7378;DHT22;3730;50.856;12.776;2023-03-04T07:07:16;1.00;99.90
7378;DHT22;3730;50.856;12.776;2023-03-04T07:09:42;1.40;99.90
7378;DHT22;3730;50.856;12.776;2023-03-04T07:12:08;1.60;99.90
7378;DHT22;3730;50.856;12.776;2023-03-04T07:14:34;1.00;99.90
7378;DHT22;3730;50.856;12.776;2023-03-04T07:16:59;0.80;99.90
7378;DHT22;3730;50.856;12.776;2023-03-04T07:19:25;0.90;99.90
7378;DHT22;3730;50.856;12.776;2023-03-04T07:21:51;1.00;99.90
7378;DHT22;3730;50.856;12.776;2023-03-04T07:24:16;1.90;99.90
7378;DHT22;3730;50.856;12.776;2023-03-04T07:26:42;0.90;99.90
7378;DHT22;3730;50.856;12.776;2023-03-04T07:29:08;0.90;99.90
7378;DHT22;3730;50.856;12.776;2023-03-04T07:31:34;0.90;99.90
7378;DHT22;3730;50.856;12.776;2023-03-04T07:34:06;1.00;99.90
7378;DHT22;3730;50.856;12.776;2023-03-04T07:36:34;0.90;99.90
7378;DHT22;3730;50.856;12.776;2023-03-04T07:39:00;1.00;99.90
7378;DHT22;3730;50.856;12.776;2023-03-04T07:41:26;1.00;99.90
7378;DHT22;3730;50.856;12.776;2023-03-04T07:43:52;1.40;99.90
7378;DHT22;3730;50.856;12.776;2023-03-04T07:46:18;1.10;99.90
7378;DHT22;3730;50.856;12.776;2023-03-04T07:48:44;1.00;99.90
7378;DHT22;3730;50.856;12.776;2023-03-04T07:51:21;1.00;99.90
7378;DHT22;3730;50.856;12.776;2023-03-04T07:53:49;1.90;99.90
7378;DHT22;3730;50.856;12.776;2023-03-04T07:56:19;1.10;99.90
7378;DHT22;3730;50.856;12.776;2023-03-04T07:58:45;1.70;99.90
7378;DHT22;3730;50.856;12.776;2023-03-04T08:01:12;1.10;99.90
7378;DHT22;3730;50.856;12.776;2023-03-04T08:03:39;1.10;99.90
7378;DHT22;3730;50.856;12.776;2023-03-04T08:06:06;1.10;99.90
7378;DHT22;3730;50.856;12.776;2023-03-04T08:08:33;1.00;99.90
7378;DHT22;3730;50.856;12.776;2023-03-04T08:10:59;1.20;99.90
7378;DHT22;3730;50.856;12.776;2023-03-04T08:13:24;2.10;99.90
7378;DHT22;3730;50.856;12.776;2023-03-04T08:15:50;1.30;99.90
7378;DHT22;3730;50.856;12.776;2023-03-04T08:18:16;1.20;99.90
7378;DHT22;3730;50.856;12.776;2023-03-04T08:20:41;1.20;99.90
7378;DHT22;3730;50.856;12.776;2023-03-04T08:23:09;2.00;99.90
7378;DHT22;3730;50.856;12.776;2023-03-04T08:25:41;2.30;99.90
7378;DHT22;3730;50.856;12.776;2023-03-04T08:28:08;1.30;99.90
7378;DHT22;3730;50.856;12.776;2023-03-04T08:30:35;1.30;99.90
7378;DHT22;3730;50.856;12.776;2023-03-04T08:33:02;1.40;99.90
7378;DHT22;3730;50.856;12.776;2023-03-04T08:35:28;1.50;99.90
7378;DHT22;3730;50.856;12.776;2023-03-04T08:37:54;1.40;99.90
7378;DHT22;3730;50.856;12.776;2023-03-04T08:40:20;1.50;99.90
7378;DHT22;3730;50.856;12.776;2023-03-04T08:42:46;2.60;99.90
7378;DHT22;3730;50.856;12.776;2023-03-04T08:45:11;1.40;99.90
7378;DHT22;3730;50.856;12.776;2023-03-04T08:47:37;2.60;99.90
7378;DHT22;3730;50.856;12.776;2023-03-04T08:50:04;1.90;99.90
7378;DHT22;3730;50.856;12.776;2023-03-04T08:52:31;1.50;99.90
7378;DHT22;3730;50.856;12.776;2023-03-04T08:54:57;1.40;99.90
7378;DHT22;3730;50.856;12.776;2023-03-04T08:57:23;1.50;99.90
7378;DHT22;3730;50.856;12.776;2023-03-04T08:59:48;1.40;99.90
7378;DHT22;3730;50.856;12.776;2023-03-04T09:02:14;2.60;99.90
7378;DHT22;3730;50.856;12.776;2023-03-04T09:04:40;2.30;99.90
7378;DHT22;3730;50.856;12.776;2023-03-04T09:07:06;1.50;99.90
7378;DHT22;3730;50.856;12.776;2023-03-04T09:09:33;1.60;99.90
7378;DHT22;3730;50.856;12.776;2023-03-04T09:11:59;2.80;99.90
7378;DHT22;3730;50.856;12.776;2023-03-04T09:14:24;1.60;99.90
7378;DHT22;3730;50.856;12.776;2023-03-04T09:16:50;1.70;99.90
7378;DHT22;3730;50.856;12.776;2023-03-04T09:19:16;2.00;99.90
7378;DHT22;3730;50.856;12.776;2023-03-04T09:21:41;1.70;99.90
7378;DHT22;3730;50.856;12.776;2023-03-04T09:24:07;2.40;99.90
7378;DHT22;3730;50.856;12.776;2023-03-04T09:36:20;2.10;99.90
7378;DHT22;3730;50.856;12.776;2023-03-04T09:38:46;1.90;99.90
7378;DHT22;3730;50.856;12.776;2023-03-04T11:00:07;2.50;99.90
7378;DHT22;3730;50.856;12.776;2023-03-04T11:02:46;2.90;99.90
7378;DHT22;3730;50.856;12.776;2023-03-04T11:05:21;3.90;99.90
7378;DHT22;3730;50.856;12.776;2023-03-04T11:07:57;3.00;99.90
7378;DHT22;3730;50.856;12.776;2023-03-04T11:10:49;3.00;99.90
7378;DHT22;3730;50.856;12.776;2023-03-04T12:43:14;3.90;99.90
7378;DHT22;3730;50.856;12.776;2023-03-04T12:46:10;3.70;99.90
7378;DHT22;3730;50.856;12.776;2023-03-04T12:48:41;3.90;99.90
7378;DHT22;3730;50.856;12.776;2023-03-04T12:51:24;3.90;99.90
7378;DHT22;3730;50.856;12.776;2023-03-04T12:54:17;3.90;99.90
7378;DHT22;3730;50.856;12.776;2023-03-04T12:56:52;4.00;99.90
7378;DHT22;3730;50.856;12.776;2023-03-04T12:59:21;3.90;99.90
7378;DHT22;3730;50.856;12.776;2023-03-04T13:01:55;3.90;99.90
7378;DHT22;3730;50.856;12.776;2023-03-04T13:04:38;4.00;99.90
7378;DHT22;3730;50.856;12.776;2023-03-04T13:10:01;4.00;99.90
7378;DHT22;3730;50.856;12.776;2023-03-04T13:12:55;3.90;99.90
7378;DHT22;3730;50.856;12.776;2023-03-04T13:25:41;4.10;99.90
7378;DHT22;3730;50.856;12.776;2023-03-04T13:46:42;4.20;99.90
7378;DHT22;3730;50.856;12.776;2023-03-04T13:49:21;4.20;99.90
7378;DHT22;3730;50.856;12.776;2023-03-04T13:51:49;4.20;99.90
7378;DHT22;3730;50.856;12.776;2023-03-04T13:54:30;4.30;99.90
7378;DHT22;3730;50.856;12.776;2023-03-04T13:59:45;4.40;99.90
7378;DHT22;3730;50.856;12.776;2023-03-04T14:02:16;4.40;99.90
7378;DHT22;3730;50.856;12.776;2023-03-04T14:07:29;4.40;99.90
7378;DHT22;3730;50.856;12.776;2023-03-04T14:10:17;4.40;99.90
7378;DHT22;3730;50.856;12.776;2023-03-04T14:12:50;4.40;99.90
7378;DHT22;3730;50.856;12.776;2023-03-04T14:15:28;4.40;99.90
7378;DHT22;3730;50.856;12.776;2023-03-04T14:17:58;4.50;99.90
7378;DHT22;3730;50.856;12.776;2023-03-04T14:20:32;4.50;99.90
7378;DHT22;3730;50.856;12.776;2023-03-04T14:22:59;4.10;99.90
7378;DHT22;3730;50.856;12.776;2023-03-04T14:25:28;4.50;99.90
7378;DHT22;3730;50.856;12.776;2023-03-04T14:28:11;4.60;99.90
7378;DHT22;3730;50.856;12.776;2023-03-04T14:30:37;4.60;99.90
7378;DHT22;3730;50.856;12.776;2023-03-04T14:33:06;4.90;99.90
7378;DHT22;3730;50.856;12.776;2023-03-04T14:35:33;4.50;99.90
7378;DHT22;3730;50.856;12.776;2023-03-04T14:38:00;4.50;99.90
7378;DHT22;3730;50.856;12.776;2023-03-04T14:40:45;4.50;99.90
7378;DHT22;3730;50.856;12.776;2023-03-04T14:43:15;4.60;99.90
7378;DHT22;3730;50.856;12.776;2023-03-04T14:45:44;4.40;99.90
7378;DHT22;3730;50.856;12.776;2023-03-04T14:48:19;4.90;99.90
7378;DHT22;3730;50.856;12.776;2023-03-04T14:50:48;4.50;99.90
7378;DHT22;3730;50.856;12.776;2023-03-04T14:53:17;4.50;99.90
7378;DHT22;3730;50.856;12.776;2023-03-04T14:56:06;4.50;99.90
7378;DHT22;3730;50.856;12.776;2023-03-04T14:58:34;4.50;99.90
7378;DHT22;3730;50.856;12.776;2023-03-04T15:01:16;4.40;99.90
7378;DHT22;3730;50.856;12.776;2023-03-04T15:04:01;4.90;99.90
7378;DHT22;3730;50.856;12.776;2023-03-04T15:06:30;4.30;99.90
7378;DHT22;3730;50.856;12.776;2023-03-04T15:12:02;4.80;99.90
7378;DHT22;3730;50.856;12.776;2023-03-04T15:14:46;4.20;99.90
7378;DHT22;3730;50.856;12.776;2023-03-04T15:17:33;4.50;99.90
7378;DHT22;3730;50.856;12.776;2023-03-04T15:25:05;4.30;99.90
7378;DHT22;3730;50.856;12.776;2023-03-04T15:27:31;4.30;99.90
7378;DHT22;3730;50.856;12.776;2023-03-04T15:29:58;4.50;99.90
7378;DHT22;3730;50.856;12.776;2023-03-04T15:32:25;4.40;99.90
7378;DHT22;3730;50.856;12.776;2023-03-04T15:34:51;4.80;99.90
7378;DHT22;3730;50.856;12.776;2023-03-04T15:37:28;4.50;99.90
7378;DHT22;3730;50.856;12.776;2023-03-04T15:39:55;5.00;99.90
7378;DHT22;3730;50.856;12.776;2023-03-04T15:42:22;4.00;99.90
7378;DHT22;3730;50.856;12.776;2023-03-04T15:44:47;4.10;99.90
7378;DHT22;3730;50.856;12.776;2023-03-04T15:47:13;4.50;99.90
7378;DHT22;3730;50.856;12.776;2023-03-04T15:49:40;4.00;99.90
7378;DHT22;3730;50.856;12.776;2023-03-04T15:52:09;4.00;99.90
7378;DHT22;3730;50.856;12.776;2023-03-04T15:54:37;3.90;99.90
7378;DHT22;3730;50.856;12.776;2023-03-04T15:57:13;4.20;99.90
7378;DHT22;3730;50.856;12.776;2023-03-04T15:59:41;4.50;99.90
7378;DHT22;3730;50.856;12.776;2023-03-04T16:29:15;3.90;99.90
7378;DHT22;3730;50.856;12.776;2023-03-04T16:31:40;3.60;99.90
7378;DHT22;3730;50.856;12.776;2023-03-04T16:34:06;3.70;99.90
7378;DHT22;3730;50.856;12.776;2023-03-04T16:36:34;4.30;99.90
7378;DHT22;3730;50.856;12.776;2023-03-04T16:39:03;3.60;99.90
7378;DHT22;3730;50.856;12.776;2023-03-04T16:41:29;3.60;99.90
7378;DHT22;3730;50.856;12.776;2023-03-04T16:43:58;4.70;99.90
7378;DHT22;3730;50.856;12.776;2023-03-04T16:46:24;3.60;99.90
7378;DHT22;3730;50.856;12.776;2023-03-04T16:48:49;4.50;99.90
7378;DHT22;3730;50.856;12.776;2023-03-04T16:51:17;3.90;99.90
7378;DHT22;3730;50.856;12.776;2023-03-04T16:53:47;4.80;99.90
7378;DHT22;3730;50.856;12.776;2023-03-04T16:56:15;4.20;99.90
7378;DHT22;3730;50.856;12.776;2023-03-04T16:58:42;3.80;99.90
7378;DHT22;3730;50.856;12.776;2023-03-04T17:01:27;3.70;99.90
7378;DHT22;3730;50.856;12.776;2023-03-04T17:03:54;4.40;99.90
7378;DHT22;3730;50.856;12.776;2023-03-04T17:06:21;3.60;99.90
7378;DHT22;3730;50.856;12.776;2023-03-04T17:08:47;3.50;99.90
7378;DHT22;3730;50.856;12.776;2023-03-04T17:11:20;3.60;99.90
7378;DHT22;3730;50.856;12.776;2023-03-04T17:13:46;3.60;99.90
7378;DHT22;3730;50.856;12.776;2023-03-04T17:16:12;3.60;99.90
7378;DHT22;3730;50.856;12.776;2023-03-04T17:18:37;4.00;99.90
7378;DHT22;3730;50.856;12.776;2023-03-04T17:21:05;3.90;99.90
7378;DHT22;3730;50.856;12.776;2023-03-04T17:23:31;3.70;99.90
7378;DHT22;3730;50.856;12.776;2023-03-04T17:25:58;4.70;99.90
7378;DHT22;3730;50.856;12.776;2023-03-04T17:28:24;4.10;99.90
7378;DHT22;3730;50.856;12.776;2023-03-04T17:30:50;4.00;99.90
7378;DHT22;3730;50.856;12.776;2023-03-04T17:33:16;3.60;99.90
7378;DHT22;3730;50.856;12.776;2023-03-04T17:35:41;3.70;99.90
7378;DHT22;3730;50.856;12.776;2023-03-04T17:38:08;4.10;99.90
7378;DHT22;3730;50.856;12.776;2023-03-04T17:40:34;3.50;99.90
7378;DHT22;3730;50.856;12.776;2023-03-04T17:42:59;3.50;99.90
7378;DHT22;3730;50.856;12.776;2023-03-04T17:45:25;4.20;99.90
7378;DHT22;3730;50.856;12.776;2023-03-04T17:47:51;3.40;99.90
7378;DHT22;3730;50.856;12.776;2023-03-04T17:50:16;3.40;99.90
7378;DHT22;3730;50.856;12.776;2023-03-04T17:52:42;3.50;99.90
7378;DHT22;3730;50.856;12.776;2023-03-04T17:55:08;3.40;99.90
7378;DHT22;3730;50.856;12.776;2023-03-04T17:57:35;3.50;99.90
7378;DHT22;3730;50.856;12.776;2023-03-04T18:00:03;3.60;99.90
7378;DHT22;3730;50.856;12.776;2023-03-04T18:02:29;3.60;99.90
7378;DHT22;3730;50.856;12.776;2023-03-04T18:04:55;3.60;99.90
7378;DHT22;3730;50.856;12.776;2023-03-04T18:07:21;3.50;99.90
7378;DHT22;3730;50.856;12.776;2023-03-04T18:09:46;4.50;99.90
7378;DHT22;3730;50.856;12.776;2023-03-04T18:12:12;4.30;99.90
7378;DHT22;3730;50.856;12.776;2023-03-04T18:14:38;4.20;99.90
7378;DHT22;3730;50.856;12.776;2023-03-04T18:17:04;4.10;99.90
7378;DHT22;3730;50.856;12.776;2023-03-04T18:19:29;3.50;99.90
7378;DHT22;3730;50.856;12.776;2023-03-04T18:21:55;3.50;99.90
7378;DHT22;3730;50.856;12.776;2023-03-04T18:24:21;4.80;99.90
7378;DHT22;3730;50.856;12.776;2023-03-04T18:26:46;3.50;99.90
7378;DHT22;3730;50.856;12.776;2023-03-04T18:29:13;4.00;99.90
7378;DHT22;3730;50.856;12.776;2023-03-04T18:31:39;3.90;99.90
7378;DHT22;3730;50.856;12.776;2023-03-04T18:34:05;3.40;99.90
7378;DHT22;3730;50.856;12.776;2023-03-04T18:36:31;3.50;99.90
7378;DHT22;3730;50.856;12.776;2023-03-04T18:38:57;3.60;99.90
7378;DHT22;3730;50.856;12.776;2023-03-04T18:41:24;4.30;99.90
7378;DHT22;3730;50.856;12.776;2023-03-04T18:43:49;3.50;99.90
7378;DHT22;3730;50.856;12.776;2023-03-04T18:46:27;3.40;99.90
7378;DHT22;3730;50.856;12.776;2023-03-04T18:48:58;3.40;99.90
7378;DHT22;3730;50.856;12.776;2023-03-04T18:51:24;3.20;99.90
7378;DHT22;3730;50.856;12.776;2023-03-04T18:53:50;4.60;99.90
7378;DHT22;3730;50.856;12.776;2023-03-04T18:56:30;3.40;99.90
7378;DHT22;3730;50.856;12.776;2023-03-04T18:59:22;4.40;99.90
7378;DHT22;3730;50.856;12.776;2023-03-04T19:01:50;3.30;99.90
7378;DHT22;3730;50.856;12.776;2023-03-04T19:04:17;3.90;99.90
7378;DHT22;3730;50.856;12.776;2023-03-04T19:06:43;3.60;99.90
7378;DHT22;3730;50.856;12.776;2023-03-04T19:09:09;3.30;99.90
7378;DHT22;3730;50.856;12.776;2023-03-04T19:11:35;3.00;99.90
7378;DHT22;3730;50.856;12.776;2023-03-04T19:14:00;3.70;99.90
7378;DHT22;3730;50.856;12.776;2023-03-04T19:16:26;3.00;99.90
7378;DHT22;3730;50.856;12.776;2023-03-04T19:18:51;3.00;99.90
7378;DHT22;3730;50.856;12.776;2023-03-04T19:21:18;2.90;99.90
7378;DHT22;3730;50.856;12.776;2023-03-04T19:23:43;3.20;99.90
7378;DHT22;3730;50.856;12.776;2023-03-04T19:26:09;3.00;99.90
7378;DHT22;3730;50.856;12.776;2023-03-04T19:28:38;4.10;99.90
7378;DHT22;3730;50.856;12.776;2023-03-04T19:31:08;3.00;99.90
7378;DHT22;3730;50.856;12.776;2023-03-04T19:33:35;4.00;99.90
7378;DHT22;3730;50.856;12.776;2023-03-04T19:36:02;4.10;99.90
7378;DHT22;3730;50.856;12.776;2023-03-04T19:38:29;2.90;99.90
7378;DHT22;3730;50.856;12.776;2023-03-04T19:40:55;3.10;99.90
7378;DHT22;3730;50.856;12.776;2023-03-04T19:43:21;3.20;99.90
7378;DHT22;3730;50.856;12.776;2023-03-04T19:45:56;3.80;99.90
7378;DHT22;3730;50.856;12.776;2023-03-04T19:48:22;3.10;99.90
7378;DHT22;3730;50.856;12.776;2023-03-04T19:50:48;3.10;99.90
7378;DHT22;3730;50.856;12.776;2023-03-04T19:53:14;3.00;99.90
7378;DHT22;3730;50.856;12.776;2023-03-04T19:55:46;3.40;99.90
7378;DHT22;3730;50.856;12.776;2023-03-04T19:58:15;3.00;99.90
7378;DHT22;3730;50.856;12.776;2023-03-04T20:00:41;2.90;99.90
7378;DHT22;3730;50.856;12.776;2023-03-04T20:03:06;3.20;99.90
7378;DHT22;3730;50.856;12.776;2023-03-04T20:05:35;3.00;99.90
7378;DHT22;3730;50.856;12.776;2023-03-04T20:08:01;3.50;99.90
7378;DHT22;3730;50.856;12.776;2023-03-04T20:10:36;3.40;99.90
7378;DHT22;3730;50.856;12.776;2023-03-04T20:13:03;4.10;99.90
7378;DHT22;3730;50.856;12.776;2023-03-04T20:15:29;3.90;99.90
7378;DHT22;3730;50.856;12.776;2023-03-04T20:17:55;3.00;99.90
7378;DHT22;3730;50.856;12.776;2023-03-04T20:20:21;2.90;99.90